createdAt,value
2023-04-08T00:01:16.810Z,20.40
2023-04-08T00:06:21.632Z,18.40
2023-04-08T00:11:26.631Z,17.00
2023-04-08T00:16:32.881Z,24.10
2023-04-08T00:21:38.002Z,24.70
2023-04-08T00:26:43.370Z,21.20
2023-04-08T00:31:47.991Z,15.50
2023-04-08T00:36:52.576Z,29.90
2023-04-08T00:41:58.582Z,33.70
2023-04-08T00:47:06.753Z,25.10
2023-04-08T00:52:11.808Z,19.50
2023-04-08T00:57:16.611Z,20.50
2023-04-08T01:02:44.925Z,20.60
2023-04-08T01:07:51.848Z,17.30
2023-04-08T01:12:58.605Z,18.20
2023-04-08T01:18:09.083Z,19.50
2023-04-08T01:24:06.499Z,20.30
2023-04-08T01:29:14.495Z,18.70
2023-04-08T01:34:20.643Z,18.00
2023-04-08T01:39:28.108Z,18.20
2023-04-08T01:44:34.899Z,15.80
2023-04-08T01:49:39.970Z,15.20
2023-04-08T01:54:44.782Z,20.90
2023-04-08T01:59:52.905Z,19.10
2023-04-08T02:04:57.774Z,16.20
2023-04-08T02:10:01.788Z,19.00
2023-04-08T02:15:09.224Z,24.10
2023-04-08T02:20:49.170Z,21.70
2023-04-08T02:25:57.104Z,18.00
2023-04-08T02:31:04.599Z,15.00
2023-04-08T02:41:14.463Z,18.50
2023-04-08T02:46:19.760Z,19.50
2023-04-08T02:51:24.482Z,20.30
2023-04-08T02:56:28.860Z,18.20
2023-04-08T03:01:33.374Z,20.10
2023-04-08T03:06:39.050Z,21.10
2023-04-08T03:11:43.325Z,16.60
2023-04-08T03:16:47.291Z,20.40
2023-04-08T03:21:50.868Z,16.70
2023-04-08T03:26:56.157Z,18.00
2023-04-08T03:32:00.626Z,13.60
2023-04-08T03:37:05.311Z,17.70
2023-04-08T03:42:11.179Z,12.30
2023-04-08T03:47:16.282Z,16.60
2023-04-08T03:52:20.381Z,21.60
2023-04-08T03:57:26.196Z,20.60
2023-04-08T04:02:31.794Z,17.30
2023-04-08T04:07:35.942Z,18.60
2023-04-08T04:12:41.397Z,14.20
2023-04-08T04:17:49.091Z,21.60
2023-04-08T04:22:53.343Z,16.50
2023-04-08T04:27:58.716Z,22.60
2023-04-08T04:33:05.018Z,14.70
2023-04-08T04:38:13.151Z,13.90
2023-04-08T04:43:17.137Z,13.70
2023-04-08T04:48:20.903Z,13.00
2023-04-08T04:53:25.106Z,13.30
2023-04-08T04:58:31.165Z,11.60
2023-04-08T05:03:35.478Z,16.00
2023-04-08T05:08:40.211Z,13.30
2023-04-08T05:13:45.048Z,12.80
2023-04-08T05:18:49.078Z,12.00
2023-04-08T05:23:54.611Z,13.10
2023-04-08T05:28:58.447Z,8.80
2023-04-08T05:34:02.556Z,11.00
2023-04-08T05:39:08.054Z,8.70
2023-04-08T05:44:12.989Z,8.00
2023-04-08T05:49:18.350Z,9.50
2023-04-08T05:54:22.841Z,7.50
2023-04-08T05:59:26.813Z,9.90
2023-04-08T06:04:32.279Z,8.80
2023-04-08T06:09:37.860Z,7.40
2023-04-08T06:14:42.649Z,9.70
2023-04-08T06:19:47.888Z,9.40
2023-04-08T06:24:53.684Z,9.20
2023-04-08T06:29:59.920Z,12.80
2023-04-08T06:35:05.678Z,11.00
2023-04-08T06:40:11.986Z,9.70
2023-04-08T06:45:16.412Z,11.00
2023-04-08T06:50:21.566Z,10.30
2023-04-08T06:55:26.335Z,11.50
2023-04-08T07:00:33.709Z,8.80
2023-04-08T07:10:42.920Z,9.60
2023-04-08T07:15:47.361Z,13.20
2023-04-08T07:20:55.584Z,15.50
2023-04-08T07:26:05.574Z,11.60
2023-04-08T07:31:15.667Z,14.00
2023-04-08T07:36:20.359Z,11.90
2023-04-08T07:41:25.200Z,13.70
2023-04-08T07:46:29.715Z,9.90
2023-04-08T07:51:34.101Z,10.80
2023-04-08T07:56:41.505Z,11.60
2023-04-08T08:01:47.502Z,13.30
2023-04-08T08:06:52.935Z,11.10
2023-04-08T08:11:57.943Z,11.20
2023-04-08T08:17:04.382Z,11.60
2023-04-08T08:22:09.167Z,9.30
2023-04-08T08:27:13.506Z,9.00
2023-04-08T08:32:18.015Z,11.30
2023-04-08T08:37:23.809Z,9.50
2023-04-08T08:42:29.299Z,10.70
2023-04-08T08:47:33.881Z,11.10
2023-04-08T08:52:38.281Z,12.70
2023-04-08T08:57:44.042Z,18.20
2023-04-08T09:02:48.870Z,11.90
2023-04-08T09:07:54.257Z,13.90
2023-04-08T09:12:59.602Z,12.70
2023-04-08T09:18:23.009Z,14.70
2023-04-08T09:23:45.069Z,11.40
2023-04-08T09:29:25.007Z,15.10
2023-04-08T09:34:32.920Z,15.60
2023-04-08T09:39:36.958Z,12.70
2023-04-08T09:44:45.946Z,13.80
2023-04-08T09:49:59.220Z,9.80
2023-04-08T09:55:06.900Z,13.80
2023-04-08T10:00:16.903Z,15.30
2023-04-08T10:05:22.080Z,14.80
2023-04-08T10:10:27.721Z,10.90
2023-04-08T10:15:33.430Z,14.80
2023-04-08T10:20:36.730Z,10.60
2023-04-08T10:25:48.240Z,13.00
2023-04-08T10:30:54.390Z,10.70
2023-04-08T10:36:12.650Z,12.80
2023-04-08T10:41:25.335Z,16.50
2023-04-08T10:46:30.175Z,10.40
2023-04-08T10:51:35.639Z,10.40
2023-04-08T10:57:06.539Z,13.30
2023-04-08T11:02:15.369Z,10.40
2023-04-08T11:07:21.726Z,11.00
2023-04-08T11:12:26.640Z,12.60
2023-04-08T11:17:32.604Z,14.40
2023-04-08T11:22:37.326Z,11.60
2023-04-08T11:27:42.642Z,9.80
2023-04-08T11:32:47.507Z,8.80
2023-04-08T11:37:54.153Z,28.30
2023-04-08T11:43:00.552Z,14.20
2023-04-08T11:48:15.247Z,10.80
2023-04-08T11:53:21.875Z,12.10
2023-04-08T11:58:28.404Z,13.60
2023-04-08T12:03:32.949Z,8.50
2023-04-08T12:08:39.522Z,10.80
2023-04-08T12:13:44.346Z,9.10
2023-04-08T12:18:50.214Z,10.80
2023-04-08T12:23:54.320Z,20.90
2023-04-08T12:28:59.313Z,8.70
2023-04-08T12:34:05.138Z,9.00
2023-04-08T12:39:09.859Z,11.00
2023-04-08T12:44:14.781Z,7.70
2023-04-08T12:49:19.304Z,9.90
2023-04-08T12:54:24.091Z,10.50
2023-04-08T12:59:28.265Z,13.40
2023-04-08T13:04:33.116Z,7.00
2023-04-08T13:09:38.316Z,9.80
2023-04-08T13:14:43.637Z,8.30
2023-04-08T13:19:50.560Z,9.80
2023-04-08T13:24:58.883Z,8.50
2023-04-08T13:30:05.284Z,7.30
2023-04-08T13:40:19.391Z,8.80
2023-04-08T13:45:26.248Z,8.50
2023-04-08T13:50:30.313Z,8.00
2023-04-08T13:55:36.200Z,7.50
2023-04-08T14:00:41.206Z,10.10
2023-04-08T14:05:46.028Z,11.10
2023-04-08T14:10:49.844Z,11.90
2023-04-08T14:15:55.355Z,7.40
2023-04-08T14:20:59.055Z,9.60
2023-04-08T14:26:03.325Z,10.40
2023-04-08T14:31:07.537Z,9.30
2023-04-08T14:36:14.654Z,10.00
2023-04-08T14:41:20.535Z,10.90
2023-04-08T14:46:28.581Z,8.60
2023-04-08T14:51:34.318Z,9.50
2023-04-08T14:56:39.860Z,10.50
2023-04-08T15:01:45.142Z,7.20
2023-04-08T15:06:53.895Z,6.40
2023-04-08T15:11:58.920Z,7.40
2023-04-08T15:17:03.465Z,7.60
2023-04-08T15:22:08.460Z,8.00
2023-04-08T15:27:13.683Z,9.30
2023-04-08T15:32:18.770Z,11.90
2023-04-08T15:37:23.995Z,9.50
2023-04-08T15:42:28.803Z,12.00
2023-04-08T15:47:35.064Z,11.60
2023-04-08T15:52:41.376Z,10.60
2023-04-08T15:57:46.691Z,11.50
2023-04-08T16:02:51.664Z,9.90
2023-04-08T16:07:56.800Z,7.30
2023-04-08T16:13:01.843Z,8.10
2023-04-08T16:18:08.761Z,10.50
2023-04-08T16:23:17.079Z,11.90
2023-04-08T16:28:22.890Z,9.80
2023-04-08T16:33:31.941Z,12.80
2023-04-08T16:38:39.201Z,9.60
2023-04-08T16:43:46.088Z,10.10
2023-04-08T16:48:52.201Z,10.10
2023-04-08T16:59:05.919Z,12.30
2023-04-08T17:04:10.314Z,12.50
2023-04-08T17:09:18.610Z,12.00
2023-04-08T17:14:22.416Z,14.10
2023-04-08T17:19:26.903Z,9.10
2023-04-08T17:24:30.891Z,10.80
2023-04-08T17:29:35.580Z,11.60
2023-04-08T17:34:41.725Z,10.40
2023-04-08T17:39:46.091Z,9.30
2023-04-08T17:44:51.929Z,9.40
2023-04-08T17:49:56.549Z,11.30
2023-04-08T17:54:59.667Z,11.40
2023-04-08T18:00:03.450Z,11.30
2023-04-08T18:05:08.039Z,15.90
2023-04-08T18:10:11.632Z,10.70
2023-04-08T18:15:15.742Z,14.40
2023-04-08T18:20:20.047Z,10.20
2023-04-08T18:25:24.177Z,11.00
2023-04-08T18:30:28.013Z,12.40
2023-04-08T18:35:32.451Z,12.40
2023-04-08T18:40:39.364Z,11.30
2023-04-08T18:45:42.964Z,17.00
2023-04-08T18:50:47.274Z,21.40
2023-04-08T18:55:52.178Z,18.70
2023-04-08T19:00:56.886Z,18.30
2023-04-08T19:06:09.360Z,18.70
2023-04-08T19:11:13.572Z,23.60
2023-04-08T19:16:18.561Z,17.10
2023-04-08T19:21:23.900Z,16.90
2023-04-08T19:26:28.119Z,16.90
2023-04-08T19:31:32.494Z,21.40
2023-04-08T19:36:40.219Z,18.70
2023-04-08T19:41:45.292Z,19.70
2023-04-08T19:46:50.273Z,17.40
2023-04-08T19:51:54.113Z,21.70
2023-04-08T19:56:58.837Z,31.30
2023-04-08T20:02:04.398Z,22.20
2023-04-08T20:07:08.038Z,19.50
2023-04-08T20:12:11.905Z,19.90
2023-04-08T20:17:18.352Z,23.70
2023-04-08T20:22:22.345Z,21.00
2023-04-08T20:27:27.103Z,20.90
2023-04-08T20:32:31.219Z,22.10
2023-04-08T20:37:34.769Z,25.30
2023-04-08T20:42:39.099Z,26.90
2023-04-08T20:47:45.042Z,21.00
2023-04-08T20:52:49.210Z,24.30
2023-04-08T20:57:53.432Z,26.30
2023-04-08T21:02:58.204Z,24.60
2023-04-08T21:08:02.163Z,27.10
2023-04-08T21:13:06.488Z,30.80
2023-04-08T21:18:12.061Z,29.80
2023-04-08T21:23:16.484Z,25.70
2023-04-08T21:28:21.415Z,30.20
2023-04-08T21:33:24.889Z,27.30
2023-04-08T21:38:28.703Z,28.30
2023-04-08T21:43:32.432Z,33.20
2023-04-08T21:48:36.729Z,30.90
2023-04-08T21:53:41.009Z,23.90
2023-04-08T21:58:44.933Z,25.60
2023-04-08T22:03:49.092Z,21.00
2023-04-08T22:08:53.512Z,17.30
2023-04-08T22:14:00.022Z,17.90
2023-04-08T22:19:03.949Z,17.60
2023-04-08T22:24:08.066Z,15.90
2023-04-08T22:29:12.543Z,16.00
2023-04-08T22:34:15.855Z,17.40
2023-04-08T22:39:19.610Z,12.20
2023-04-08T22:44:24.042Z,12.70
2023-04-08T22:49:29.222Z,15.20
2023-04-08T22:54:34.267Z,9.90
2023-04-08T22:59:37.815Z,11.30
2023-04-08T23:04:42.062Z,10.10
2023-04-08T23:09:47.216Z,12.70
2023-04-08T23:14:52.620Z,11.90
2023-04-08T23:19:57.989Z,11.70
2023-04-08T23:25:02.096Z,12.20
2023-04-08T23:30:07.431Z,11.50
2023-04-08T23:35:12.128Z,10.80
2023-04-08T23:40:16.595Z,12.90
2023-04-08T23:45:20.455Z,12.50
2023-04-08T23:50:25.408Z,9.00
2023-04-08T23:55:30.751Z,10.90
